createdAt,value
2017-10-15T00:00:50.930Z,96540.03
2017-10-15T00:03:18.682Z,96529.78
2017-10-15T00:05:46.282Z,96538.18
2017-10-15T00:08:13.978Z,96536.30
2017-10-15T00:10:41.590Z,96537.56
2017-10-15T00:13:09.324Z,96535.80
2017-10-15T00:15:37.001Z,96535.80
2017-10-15T00:18:04.609Z,96540.73
2017-10-15T00:20:32.258Z,96533.21
2017-10-15T00:22:59.917Z,96540.74
2017-10-15T00:25:28.337Z,96537.34
2017-10-15T00:27:56.866Z,96538.69
2017-10-15T00:30:24.942Z,96533.92
2017-10-15T00:32:53.218Z,96531.44
2017-10-15T00:35:23.679Z,96531.45
2017-10-15T00:37:52.181Z,96527.78
2017-10-15T00:40:20.518Z,96528.20
2017-10-15T00:42:49.130Z,96530.06
2017-10-15T00:45:16.786Z,96530.48
2017-10-15T00:47:45.226Z,96524.56
2017-10-15T00:50:13.011Z,96528.28
2017-10-15T00:52:40.727Z,96527.09
2017-10-15T00:55:08.518Z,96539.77
2017-10-15T00:57:36.151Z,96540.02
2017-10-15T01:00:05.213Z,96547.12
2017-10-15T01:02:32.971Z,96549.28
2017-10-15T01:05:00.572Z,96543.22
2017-10-15T01:07:28.174Z,96546.65
2017-10-15T01:09:55.751Z,96552.64
2017-10-15T01:12:23.519Z,96554.60
2017-10-15T01:14:51.292Z,96558.27
2017-10-15T01:17:20.540Z,96559.36
2017-10-15T01:19:48.254Z,96564.51
2017-10-15T01:22:25.610Z,96560.64
2017-10-15T01:24:53.238Z,96571.18
2017-10-15T01:27:20.861Z,96572.06
2017-10-15T01:29:48.517Z,96574.00
2017-10-15T01:32:16.122Z,96571.96
2017-10-15T01:34:43.711Z,96575.77
2017-10-15T01:37:11.531Z,96581.95
2017-10-15T01:39:39.239Z,96574.64
2017-10-15T01:42:07.142Z,96574.83
2017-10-15T01:44:34.950Z,96578.70
2017-10-15T01:47:02.588Z,96579.48
2017-10-15T01:49:30.376Z,96570.75
2017-10-15T01:51:58.168Z,96579.41
2017-10-15T01:54:25.787Z,96582.51
2017-10-15T01:56:53.582Z,96581.13
2017-10-15T01:59:22.183Z,96580.56
2017-10-15T02:01:50.576Z,96579.52
2017-10-15T02:04:18.102Z,96584.03
2017-10-15T02:06:45.676Z,96588.34
2017-10-15T02:09:13.342Z,96597.80
2017-10-15T02:11:40.922Z,96592.80
2017-10-15T02:14:08.519Z,96601.22
2017-10-15T02:16:36.140Z,96601.77
2017-10-15T02:19:03.834Z,96594.10
2017-10-15T02:21:31.458Z,96594.84
2017-10-15T02:23:59.065Z,96601.81
2017-10-15T02:26:26.880Z,96610.20
2017-10-15T02:28:54.618Z,96599.78
2017-10-15T02:31:22.224Z,96597.82
2017-10-15T02:33:49.824Z,96601.33
2017-10-15T02:36:17.422Z,96605.17
2017-10-15T02:38:45.096Z,96606.75
2017-10-15T02:41:12.783Z,96605.39
2017-10-15T02:43:40.401Z,96602.44
2017-10-15T02:46:08.081Z,96606.44
2017-10-15T02:48:35.846Z,96600.64
2017-10-15T02:51:03.420Z,96598.20
2017-10-15T02:53:31.007Z,96592.68
2017-10-15T02:55:58.569Z,96591.48
2017-10-15T02:58:26.167Z,96598.15
2017-10-15T03:00:53.823Z,96602.20
2017-10-15T03:03:21.379Z,96609.02
2017-10-15T03:05:49.188Z,96608.62
2017-10-15T03:08:16.849Z,96615.54
2017-10-15T03:10:44.647Z,96614.48
2017-10-15T03:13:12.230Z,96616.20
2017-10-15T03:15:39.907Z,96624.34
2017-10-15T03:18:07.660Z,96621.47
2017-10-15T03:20:35.250Z,96620.39
2017-10-15T03:23:02.965Z,96610.58
2017-10-15T03:25:30.588Z,96613.74
2017-10-15T03:27:58.385Z,96617.23
2017-10-15T03:30:25.998Z,96615.47
2017-10-15T03:32:54.492Z,96612.22
2017-10-15T03:35:22.097Z,96612.88
2017-10-15T03:37:49.687Z,96609.84
2017-10-15T03:40:17.456Z,96617.20
2017-10-15T03:42:45.064Z,96616.47
2017-10-15T03:45:12.675Z,96620.88
2017-10-15T03:47:40.448Z,96614.47
2017-10-15T03:50:08.084Z,96619.30
2017-10-15T03:52:35.711Z,96621.39
2017-10-15T03:55:03.297Z,96619.23
2017-10-15T03:57:31.111Z,96627.16
2017-10-15T03:59:59.056Z,96629.80
2017-10-15T04:02:26.660Z,96633.16
2017-10-15T04:04:54.276Z,96635.45
2017-10-15T04:07:21.914Z,96624.97
2017-10-15T04:09:49.554Z,96626.65
2017-10-15T04:12:17.430Z,96629.26
2017-10-15T04:14:45.082Z,96628.97
2017-10-15T04:17:13.107Z,96634.06
2017-10-15T04:19:41.018Z,96640.19
2017-10-15T04:22:09.513Z,96643.79
2017-10-15T04:24:37.125Z,96635.74
2017-10-15T04:27:04.948Z,96643.20
2017-10-15T04:29:33.178Z,96640.45
2017-10-15T04:32:00.779Z,96646.25
2017-10-15T04:34:28.344Z,96646.11
2017-10-15T04:36:56.194Z,96645.05
2017-10-15T04:39:23.846Z,96649.72
2017-10-15T04:41:51.676Z,96644.40
2017-10-15T04:44:19.488Z,96648.83
2017-10-15T04:46:47.715Z,96645.23
2017-10-15T04:49:15.254Z,96652.24
2017-10-15T04:51:42.807Z,96663.00
2017-10-15T04:54:10.434Z,96661.09
2017-10-15T04:56:38.259Z,96658.09
2017-10-15T04:59:06.025Z,96655.93
2017-10-15T05:01:33.679Z,96655.69
2017-10-15T05:04:01.910Z,96662.00
2017-10-15T05:06:29.532Z,96662.75
2017-10-15T05:08:57.186Z,96662.47
2017-10-15T05:11:29.335Z,96659.33
2017-10-15T05:13:57.090Z,96656.08
2017-10-15T05:16:27.106Z,96666.22
2017-10-15T05:18:57.120Z,96671.54
2017-10-15T05:21:26.928Z,96662.17
2017-10-15T05:26:36.145Z,96677.49
2017-10-15T05:29:06.484Z,96675.73
2017-10-15T05:31:42.259Z,96676.70
2017-10-15T05:34:10.135Z,96679.80
2017-10-15T05:36:39.890Z,96683.70
2017-10-15T05:39:09.148Z,96685.08
2017-10-15T05:41:37.244Z,96688.09
2017-10-15T05:44:06.018Z,96689.36
2017-10-15T05:46:33.681Z,96685.27
2017-10-15T05:49:01.294Z,96680.14
2017-10-15T05:51:31.047Z,96678.76
2017-10-15T05:53:59.341Z,96677.33
2017-10-15T05:56:27.336Z,96689.04
2017-10-15T05:58:55.633Z,96685.01
2017-10-15T06:01:24.498Z,96688.11
2017-10-15T06:03:52.523Z,96687.88
2017-10-15T06:06:20.333Z,96692.94
2017-10-15T06:08:53.981Z,96688.41
2017-10-15T06:11:22.650Z,96692.27
2017-10-15T06:13:50.252Z,96691.78
2017-10-15T06:16:18.288Z,96696.09
2017-10-15T06:18:45.868Z,96696.59
2017-10-15T06:21:14.300Z,96700.81
2017-10-15T06:23:47.451Z,96697.80
2017-10-15T06:26:18.418Z,96709.84
2017-10-15T06:28:46.810Z,96705.06
2017-10-15T06:31:16.860Z,96704.53
2017-10-15T06:33:47.575Z,96700.91
2017-10-15T06:36:17.004Z,96709.37
2017-10-15T06:38:44.843Z,96716.23
2017-10-15T06:41:12.391Z,96714.27
2017-10-15T06:43:39.965Z,96709.89
2017-10-15T06:46:07.614Z,96707.59
2017-10-15T06:48:35.354Z,96704.64
2017-10-15T06:51:03.557Z,96704.12
2017-10-15T06:53:37.300Z,96692.95
2017-10-15T06:56:09.141Z,96691.39
2017-10-15T06:58:36.723Z,96691.23
2017-10-15T07:01:04.474Z,96691.34
2017-10-15T07:03:32.056Z,96694.30
2017-10-15T07:05:59.699Z,96697.78
2017-10-15T07:08:27.554Z,96697.51
2017-10-15T07:10:56.515Z,96694.81
2017-10-15T07:13:24.334Z,96703.86
2017-10-15T07:15:51.946Z,96706.15
2017-10-15T07:18:19.551Z,96701.64
2017-10-15T07:20:48.250Z,96701.02
2017-10-15T07:23:18.918Z,96694.23
2017-10-15T07:25:46.862Z,96707.87
2017-10-15T07:28:14.500Z,96717.70
2017-10-15T07:30:42.135Z,96708.91
2017-10-15T07:33:09.925Z,96708.70
2017-10-15T07:35:37.491Z,96712.44
2017-10-15T07:38:05.100Z,96706.74
2017-10-15T07:40:32.882Z,96706.11
2017-10-15T07:43:00.427Z,96695.77
2017-10-15T07:45:28.158Z,96691.89
2017-10-15T07:47:55.743Z,96690.13
2017-10-15T07:50:23.375Z,96698.41
2017-10-15T07:52:51.039Z,96699.77
2017-10-15T07:55:18.567Z,96703.84
2017-10-15T07:57:46.322Z,96706.25
2017-10-15T08:00:13.951Z,96709.14
2017-10-15T08:02:42.547Z,96704.27
2017-10-15T08:05:11.321Z,96703.91
2017-10-15T08:07:38.912Z,96708.30
2017-10-15T08:10:07.428Z,96708.08
2017-10-15T08:12:35.124Z,96697.57
2017-10-15T08:15:02.746Z,96690.95
2017-10-15T08:17:31.321Z,96693.45
2017-10-15T08:19:59.062Z,96696.50
2017-10-15T08:22:26.702Z,96701.72
2017-10-15T08:24:54.404Z,96700.66
2017-10-15T08:27:21.988Z,96697.02
2017-10-15T08:29:51.310Z,96699.06
2017-10-15T08:32:19.587Z,96698.80
2017-10-15T08:34:49.172Z,96703.47
2017-10-15T08:37:18.477Z,96695.45
2017-10-15T08:39:47.660Z,96686.11
2017-10-15T08:42:15.755Z,96682.56
2017-10-15T08:44:43.825Z,96673.77
2017-10-15T08:47:13.355Z,96673.47
2017-10-15T08:49:41.225Z,96679.91
2017-10-15T08:52:11.321Z,96676.81
2017-10-15T08:54:40.158Z,96667.82
2017-10-15T08:57:09.446Z,96677.63
2017-10-15T08:59:39.459Z,96671.97
2017-10-15T09:02:08.904Z,96673.66
2017-10-15T09:04:38.494Z,96680.33
2017-10-15T09:07:06.940Z,96676.26
2017-10-15T09:09:34.605Z,96678.05
2017-10-15T09:12:02.215Z,96678.87
2017-10-15T09:14:30.020Z,96678.66
2017-10-15T09:16:57.618Z,96678.60
2017-10-15T09:19:25.151Z,96674.22
2017-10-15T09:21:52.718Z,96680.73
2017-10-15T09:24:20.320Z,96676.09
2017-10-15T09:26:47.838Z,96677.30
2017-10-15T09:29:15.465Z,96663.09
2017-10-15T09:31:43.116Z,96660.70
2017-10-15T09:34:10.665Z,96664.30
2017-10-15T09:36:38.422Z,96654.25
2017-10-15T09:39:06.031Z,96659.86
2017-10-15T09:41:33.566Z,96652.27
2017-10-15T09:44:01.487Z,96647.70
2017-10-15T09:46:29.082Z,96638.23
2017-10-15T09:48:56.608Z,96627.14
2017-10-15T09:51:24.156Z,96626.13
2017-10-15T09:53:51.804Z,96626.38
2017-10-15T09:56:19.376Z,96619.27
2017-10-15T09:58:46.981Z,96617.87
2017-10-15T10:01:14.564Z,96610.77
2017-10-15T10:03:42.108Z,96605.62
2017-10-15T10:06:09.670Z,96598.69
2017-10-15T10:08:37.271Z,96595.95
2017-10-15T10:11:04.882Z,96595.59
2017-10-15T10:13:33.593Z,96596.56
2017-10-15T10:16:01.175Z,96590.39
2017-10-15T10:18:28.727Z,96590.75
2017-10-15T10:20:56.302Z,96597.71
2017-10-15T10:23:23.965Z,96596.16
2017-10-15T10:25:51.816Z,96581.14
2017-10-15T10:28:19.394Z,96581.36
2017-10-15T10:30:47.014Z,96570.11
2017-10-15T10:33:14.538Z,96579.53
2017-10-15T10:35:42.124Z,96575.92
2017-10-15T10:38:09.794Z,96569.31
2017-10-15T10:40:37.430Z,96564.34
2017-10-15T10:43:04.973Z,96552.55
2017-10-15T10:45:32.566Z,96557.66
2017-10-15T10:48:00.377Z,96554.70
2017-10-15T10:50:27.924Z,96550.22
2017-10-15T10:52:55.518Z,96543.56
2017-10-15T10:55:23.043Z,96541.42
2017-10-15T10:57:50.600Z,96546.61
2017-10-15T11:00:18.223Z,96543.02
2017-10-15T11:02:45.998Z,96544.19
2017-10-15T11:05:13.561Z,96536.72
2017-10-15T11:07:41.158Z,96533.72
2017-10-15T11:10:08.962Z,96525.67
2017-10-15T11:12:36.496Z,96516.22
2017-10-15T11:15:04.411Z,96512.23
2017-10-15T11:17:31.992Z,96513.59
2017-10-15T11:19:59.763Z,96512.21
2017-10-15T11:22:27.348Z,96509.98
2017-10-15T11:24:54.925Z,96503.34
2017-10-15T11:27:22.471Z,96488.28
2017-10-15T11:29:50.052Z,96479.23
2017-10-15T11:32:17.598Z,96476.54
2017-10-15T11:34:45.397Z,96474.55
2017-10-15T11:37:13.217Z,96471.79
2017-10-15T11:39:40.837Z,96483.52
2017-10-15T11:42:08.340Z,96475.33
2017-10-15T11:44:35.898Z,96480.68
2017-10-15T11:47:03.491Z,96480.30
2017-10-15T11:49:31.311Z,96477.23
2017-10-15T11:51:58.850Z,96470.56
2017-10-15T11:54:26.586Z,96467.02
2017-10-15T11:56:54.214Z,96476.25
2017-10-15T11:59:21.787Z,96476.32
2017-10-15T12:01:49.499Z,96472.38
2017-10-15T12:04:17.054Z,96472.87
2017-10-15T12:06:44.638Z,96472.78
2017-10-15T12:09:12.213Z,96457.22
2017-10-15T12:11:39.767Z,96460.06
2017-10-15T12:14:07.384Z,96455.77
2017-10-15T12:16:34.995Z,96450.30
2017-10-15T12:19:02.551Z,96451.31
2017-10-15T12:21:30.150Z,96447.66
2017-10-15T12:23:57.754Z,96449.76
2017-10-15T12:26:25.855Z,96446.32
2017-10-15T12:28:53.757Z,96444.66
2017-10-15T12:31:21.522Z,96443.80
2017-10-15T12:33:49.097Z,96442.17
2017-10-15T12:36:16.634Z,96437.83
2017-10-15T12:38:44.277Z,96440.34
2017-10-15T12:41:11.823Z,96438.57
2017-10-15T12:43:40.548Z,96436.84
2017-10-15T12:46:08.438Z,96431.50
2017-10-15T12:48:36.413Z,96428.16
2017-10-15T12:53:44.905Z,96427.37
2017-10-15T12:56:12.610Z,96423.75
2017-10-15T12:58:40.407Z,96429.28
2017-10-15T13:01:08.381Z,96424.23
2017-10-15T13:03:36.254Z,96425.42
2017-10-15T13:06:04.090Z,96420.59
2017-10-15T13:08:32.073Z,96414.70
2017-10-15T13:11:00.087Z,96411.34
2017-10-15T13:13:28.659Z,96425.19
2017-10-15T13:15:56.708Z,96426.23
2017-10-15T13:18:24.667Z,96417.09
2017-10-15T13:20:53.045Z,96414.02
2017-10-15T13:23:21.486Z,96410.87
2017-10-15T13:25:49.960Z,96405.58
2017-10-15T13:28:18.368Z,96413.11
2017-10-15T13:30:46.413Z,96409.34
2017-10-15T13:33:14.538Z,96401.05
2017-10-15T13:35:42.898Z,96403.83
2017-10-15T13:38:12.327Z,96394.77
2017-10-15T13:40:40.475Z,96383.33
2017-10-15T13:43:08.749Z,96384.31
2017-10-15T13:45:37.203Z,96374.07
2017-10-15T13:48:05.319Z,96379.98
2017-10-15T13:50:33.438Z,96377.41
2017-10-15T13:53:01.480Z,96369.08
2017-10-15T13:55:29.508Z,96357.27
2017-10-15T13:57:58.187Z,96363.02
2017-10-15T14:00:26.399Z,96366.73
2017-10-15T14:02:55.558Z,96360.02
2017-10-15T14:05:24.622Z,96359.41
2017-10-15T14:07:54.089Z,96360.00
2017-10-15T14:10:22.853Z,96356.03
2017-10-15T14:12:51.972Z,96351.76
2017-10-15T14:15:21.316Z,96351.13
2017-10-15T14:17:51.852Z,96349.64
2017-10-15T14:20:21.210Z,96349.25
2017-10-15T14:22:50.174Z,96342.95
2017-10-15T14:25:19.306Z,96340.42
2017-10-15T14:27:47.970Z,96337.36
2017-10-15T14:30:18.521Z,96341.43
2017-10-15T14:32:47.199Z,96343.81
2017-10-15T14:35:16.179Z,96342.08
2017-10-15T14:37:45.351Z,96350.73
2017-10-15T14:40:14.239Z,96347.30
2017-10-15T14:42:42.723Z,96353.36
2017-10-15T14:45:12.726Z,96356.06
2017-10-15T14:47:47.459Z,96358.05
2017-10-15T14:50:15.993Z,96361.94
2017-10-15T14:52:44.681Z,96363.80
2017-10-15T14:55:14.209Z,96360.69
2017-10-15T14:57:43.465Z,96370.05
2017-10-15T15:00:13.193Z,96369.25
2017-10-15T15:02:41.662Z,96364.59
2017-10-15T15:05:10.670Z,96367.23
2017-10-15T15:07:40.117Z,96379.27
2017-10-15T15:10:22.227Z,96374.23
2017-10-15T15:13:08.957Z,96376.84
2017-10-15T15:15:43.291Z,96372.75
2017-10-15T15:18:13.434Z,96370.66
2017-10-15T15:20:42.588Z,96363.49
2017-10-15T15:23:12.723Z,96371.50
2017-10-15T15:25:42.085Z,96376.88
2017-10-15T15:28:11.612Z,96377.69
2017-10-15T15:30:44.739Z,96372.92
2017-10-15T15:33:15.994Z,96375.31
2017-10-15T15:35:45.454Z,96372.06
2017-10-15T15:38:14.458Z,96384.24
2017-10-15T15:40:44.029Z,96387.27
2017-10-15T15:43:16.144Z,96400.47
2017-10-15T15:45:45.754Z,96414.53
2017-10-15T15:48:14.737Z,96407.03
2017-10-15T15:50:44.538Z,96413.69
2017-10-15T15:53:13.150Z,96410.30
2017-10-15T15:55:41.412Z,96413.86
2017-10-15T15:58:10.116Z,96415.45
2017-10-15T16:00:38.933Z,96422.36
2017-10-15T16:03:07.218Z,96425.66
2017-10-15T16:05:35.876Z,96431.48
2017-10-15T16:08:04.587Z,96428.48
2017-10-15T16:10:33.212Z,96431.16
2017-10-15T16:13:01.634Z,96425.50
2017-10-15T16:15:30.339Z,96429.70
2017-10-15T16:17:59.305Z,96433.45
2017-10-15T16:20:28.471Z,96430.74
2017-10-15T16:22:58.901Z,96433.13
2017-10-15T16:25:28.504Z,96438.52
2017-10-15T16:27:59.115Z,96451.16
2017-10-15T16:30:28.621Z,96453.72
2017-10-15T16:32:57.589Z,96449.44
2017-10-15T16:35:26.143Z,96449.80
2017-10-15T16:37:54.721Z,96456.90
2017-10-15T16:40:23.207Z,96451.21
2017-10-15T16:42:53.305Z,96459.80
2017-10-15T16:45:23.346Z,96458.01
2017-10-15T16:47:51.883Z,96457.14
2017-10-15T16:50:20.690Z,96463.50
2017-10-15T16:52:50.219Z,96456.15
2017-10-15T16:55:19.816Z,96463.91
2017-10-15T16:57:50.956Z,96468.78
2017-10-15T17:00:19.617Z,96471.34
2017-10-15T17:02:48.439Z,96470.38
2017-10-15T17:05:16.936Z,96469.84
2017-10-15T17:07:45.916Z,96461.59
2017-10-15T17:10:14.507Z,96463.11
2017-10-15T17:12:43.297Z,96459.45
2017-10-15T17:15:12.259Z,96460.65
2017-10-15T17:17:41.535Z,96462.58
2017-10-15T17:20:10.496Z,96467.02
2017-10-15T17:22:39.234Z,96465.52
2017-10-15T17:25:08.126Z,96467.11
2017-10-15T17:27:36.980Z,96460.83
2017-10-15T17:30:09.319Z,96466.85
2017-10-15T17:32:38.013Z,96466.85
2017-10-15T17:35:06.990Z,96464.76
2017-10-15T17:37:36.073Z,96469.43
2017-10-15T17:40:05.273Z,96466.06
2017-10-15T17:42:34.425Z,96468.95
2017-10-15T17:45:02.962Z,96468.50
2017-10-15T17:47:31.680Z,96469.47
2017-10-15T17:50:01.001Z,96470.55
2017-10-15T17:52:29.824Z,96471.31
2017-10-15T17:54:58.362Z,96464.83
2017-10-15T17:57:27.008Z,96466.94
2017-10-15T17:59:55.594Z,96473.22
2017-10-15T18:02:36.759Z,96470.72
2017-10-15T18:05:06.256Z,96471.75
2017-10-15T18:07:36.077Z,96466.88
2017-10-15T18:10:05.034Z,96467.95
2017-10-15T18:12:33.928Z,96464.55
2017-10-15T18:15:02.844Z,96473.14
2017-10-15T18:17:32.752Z,96479.27
2017-10-15T18:20:01.754Z,96476.20
2017-10-15T18:22:30.940Z,96474.61
2017-10-15T18:24:59.649Z,96478.73
2017-10-15T18:27:29.656Z,96469.91
2017-10-15T18:29:59.369Z,96480.56
2017-10-15T18:32:28.834Z,96477.87
2017-10-15T18:34:57.391Z,96482.50
2017-10-15T18:37:26.022Z,96478.09
2017-10-15T18:39:54.884Z,96478.16
2017-10-15T18:42:23.386Z,96489.65
2017-10-15T18:44:51.563Z,96497.36
2017-10-15T18:47:20.166Z,96499.11
2017-10-15T18:49:48.483Z,96496.55
2017-10-15T18:52:16.930Z,96493.53
2017-10-15T18:54:45.640Z,96492.34
2017-10-15T18:57:16.091Z,96500.41
2017-10-15T18:59:51.657Z,96494.05
2017-10-15T19:02:21.605Z,96497.25
2017-10-15T19:04:51.265Z,96504.08
2017-10-15T19:07:21.123Z,96504.92
2017-10-15T19:09:52.150Z,96501.92
2017-10-15T19:12:21.525Z,96500.91
2017-10-15T19:14:50.675Z,96501.87
2017-10-15T19:17:19.154Z,96504.63
2017-10-15T19:19:48.447Z,96509.52
2017-10-15T19:22:17.167Z,96510.87
2017-10-15T19:24:45.498Z,96506.69
2017-10-15T19:27:13.613Z,96501.80
2017-10-15T19:29:42.063Z,96511.69
2017-10-15T19:32:10.554Z,96512.44
2017-10-15T19:34:39.002Z,96515.65
2017-10-15T19:37:07.215Z,96521.72
2017-10-15T19:39:35.542Z,96516.98
2017-10-15T19:42:04.008Z,96514.04
2017-10-15T19:44:32.619Z,96514.20
2017-10-15T19:47:00.798Z,96526.45
2017-10-15T19:49:29.028Z,96522.61
2017-10-15T19:51:57.307Z,96530.95
2017-10-15T19:54:25.313Z,96533.59
2017-10-15T19:56:53.113Z,96549.98
2017-10-15T19:59:21.157Z,96546.77
2017-10-15T20:01:49.162Z,96552.99
2017-10-15T20:04:17.128Z,96546.13
2017-10-15T20:06:44.791Z,96544.33
2017-10-15T20:09:12.831Z,96553.34
2017-10-15T20:11:40.685Z,96558.65
2017-10-15T20:14:08.627Z,96556.55
2017-10-15T20:16:37.275Z,96556.91
2017-10-15T20:19:05.254Z,96549.29
2017-10-15T20:21:33.397Z,96544.14
2017-10-15T20:24:01.507Z,96550.20
2017-10-15T20:26:29.613Z,96550.77
2017-10-15T20:28:57.636Z,96543.74
2017-10-15T20:31:25.982Z,96548.95
2017-10-15T20:33:54.381Z,96549.69
2017-10-15T20:36:23.146Z,96554.09
2017-10-15T20:38:50.906Z,96546.95
2017-10-15T20:41:18.752Z,96552.16
2017-10-15T20:43:48.919Z,96547.31
2017-10-15T20:46:16.892Z,96547.50
2017-10-15T20:48:44.801Z,96547.73
2017-10-15T20:51:12.739Z,96536.25
2017-10-15T20:53:40.907Z,96537.91
2017-10-15T20:56:08.969Z,96532.84
2017-10-15T20:58:36.608Z,96517.53
2017-10-15T21:01:04.235Z,96518.52
2017-10-15T21:03:31.846Z,96521.77
2017-10-15T21:05:59.475Z,96533.28
2017-10-15T21:08:27.111Z,96542.59
2017-10-15T21:10:54.694Z,96547.89
2017-10-15T21:13:22.271Z,96531.05
2017-10-15T21:15:50.121Z,96536.52
2017-10-15T21:18:17.751Z,96534.70
2017-10-15T21:20:45.387Z,96530.42
2017-10-15T21:23:13.059Z,96530.55
2017-10-15T21:25:40.682Z,96533.95
2017-10-15T21:28:09.323Z,96537.44
2017-10-15T21:30:36.911Z,96538.91
2017-10-15T21:33:04.566Z,96544.63
2017-10-15T21:35:32.369Z,96546.08
2017-10-15T21:38:00.119Z,96545.03
2017-10-15T21:40:27.823Z,96549.19
2017-10-15T21:42:55.552Z,96549.52
2017-10-15T21:45:23.187Z,96550.02
2017-10-15T21:47:51.119Z,96550.30
2017-10-15T21:50:18.833Z,96549.34
2017-10-15T21:52:46.703Z,96543.28
2017-10-15T21:55:14.276Z,96557.98
2017-10-15T21:57:42.648Z,96554.63
2017-10-15T22:00:13.118Z,96562.03
2017-10-15T22:02:41.209Z,96561.84
2017-10-15T22:05:13.168Z,96566.27
2017-10-15T22:07:40.999Z,96562.55
2017-10-15T22:10:09.844Z,96555.66
2017-10-15T22:12:39.167Z,96544.98
2017-10-15T22:15:13.022Z,96543.61
2017-10-15T22:17:42.297Z,96539.42
2017-10-15T22:20:10.323Z,96546.50
2017-10-15T22:22:40.691Z,96543.23
2017-10-15T22:25:13.099Z,96538.67
2017-10-15T22:27:45.105Z,96541.58
2017-10-15T22:30:13.114Z,96544.92
2017-10-15T22:32:41.162Z,96543.66
2017-10-15T22:35:08.988Z,96542.08
2017-10-15T22:37:36.832Z,96531.64
2017-10-15T22:40:05.421Z,96535.12
2017-10-15T22:42:33.209Z,96547.02
2017-10-15T22:45:01.172Z,96545.91
2017-10-15T22:47:28.862Z,96544.91
2017-10-15T22:50:02.793Z,96548.63
2017-10-15T22:52:30.656Z,96554.84
2017-10-15T22:54:58.575Z,96559.36
2017-10-15T22:57:26.276Z,96556.16
2017-10-15T22:59:54.046Z,96560.72
2017-10-15T23:02:21.771Z,96559.26
2017-10-15T23:04:49.459Z,96556.73
2017-10-15T23:07:17.450Z,96553.63
2017-10-15T23:09:45.107Z,96561.80
2017-10-15T23:12:12.788Z,96562.02
2017-10-15T23:14:40.764Z,96560.98
2017-10-15T23:17:08.464Z,96564.83
2017-10-15T23:19:36.087Z,96563.44
2017-10-15T23:22:03.885Z,96568.94
2017-10-15T23:24:31.535Z,96568.53
2017-10-15T23:26:59.074Z,96575.75
2017-10-15T23:29:26.683Z,96578.48
2017-10-15T23:31:54.349Z,96581.21
2017-10-15T23:34:22.184Z,96582.17
2017-10-15T23:36:49.957Z,96568.53
2017-10-15T23:39:17.567Z,96559.95
2017-10-15T23:41:45.107Z,96563.89
2017-10-15T23:44:12.784Z,96573.94
2017-10-15T23:46:40.399Z,96582.09
2017-10-15T23:49:07.940Z,96584.80
2017-10-15T23:51:35.503Z,96580.54
2017-10-15T23:54:03.145Z,96576.93
2017-10-15T23:56:30.715Z,96570.13
2017-10-15T23:58:58.322Z,96568.09
